createdAt,value
2022-09-11T00:01:16.287Z,26.89
2022-09-11T00:03:44.602Z,27.03
2022-09-11T00:06:13.146Z,27.39
2022-09-11T00:08:41.440Z,27.14
2022-09-11T00:11:13.613Z,26.74
2022-09-11T00:13:40.637Z,26.97
2022-09-11T00:16:18.886Z,26.76
2022-09-11T00:18:46.742Z,26.25
2022-09-11T00:21:13.243Z,26.44
2022-09-11T00:23:39.804Z,26.98
2022-09-11T00:26:06.581Z,26.85
2022-09-11T00:28:34.371Z,27.30
2022-09-11T00:31:05.158Z,26.93
2022-09-11T00:33:33.388Z,27.23
2022-09-11T00:36:24.319Z,27.10
2022-09-11T00:38:51.248Z,26.57
2022-09-11T00:41:22.691Z,26.97
2022-09-11T00:44:05.125Z,27.29
2022-09-11T00:46:53.267Z,27.62
2022-09-11T00:49:32.520Z,26.47
2022-09-11T00:52:13.634Z,26.79
2022-09-11T00:54:49.500Z,25.85
2022-09-11T00:57:20.596Z,26.46
2022-09-11T00:59:48.255Z,26.60
2022-09-11T01:02:18.943Z,26.44
2022-09-11T01:04:45.667Z,26.89
2022-09-11T01:07:15.323Z,26.85
2022-09-11T01:09:42.793Z,25.86
2022-09-11T01:12:31.020Z,25.87
2022-09-11T01:15:04.036Z,26.26
2022-09-11T01:17:47.870Z,26.28
2022-09-11T01:20:20.372Z,26.19
2022-09-11T01:23:19.399Z,26.04
2022-09-11T01:26:18.853Z,26.03
2022-09-11T01:29:15.882Z,26.25
2022-09-11T01:31:53.506Z,25.90
2022-09-11T01:34:45.006Z,25.21
2022-09-11T01:37:21.721Z,25.99
2022-09-11T01:39:58.796Z,26.49
2022-09-11T01:42:31.383Z,26.95
2022-09-11T01:44:59.390Z,27.46
2022-09-11T01:47:28.319Z,27.79
2022-09-11T01:50:05.811Z,27.81
2022-09-11T01:52:39.681Z,27.98
2022-09-11T01:55:19.006Z,25.61
2022-09-11T01:57:52.213Z,26.17
2022-09-11T02:00:19.702Z,27.03
2022-09-11T02:02:59.454Z,26.68
2022-09-11T02:05:35.463Z,27.00
2022-09-11T02:08:16.534Z,27.33
2022-09-11T02:10:52.083Z,27.30
2022-09-11T02:13:37.222Z,27.63
2022-09-11T02:16:17.390Z,27.62
2022-09-11T02:18:50.122Z,27.88
2022-09-11T02:21:16.622Z,27.97
2022-09-11T02:23:43.248Z,28.46
2022-09-11T02:26:13.499Z,28.80
2022-09-11T02:28:40.449Z,29.03
2022-09-11T02:31:07.745Z,28.56
2022-09-11T02:33:36.934Z,28.71
2022-09-11T02:36:39.355Z,29.26
2022-09-11T02:39:25.507Z,28.99
2022-09-11T02:42:27.201Z,28.80
2022-09-11T02:45:30.201Z,28.99
2022-09-11T02:48:28.222Z,28.45
2022-09-11T02:51:25.859Z,27.74
2022-09-11T02:54:19.499Z,27.35
2022-09-11T02:56:52.432Z,27.71
2022-09-11T02:59:30.070Z,28.32
2022-09-11T03:02:02.103Z,28.61
2022-09-11T03:04:31.231Z,28.33
2022-09-11T03:06:58.895Z,28.88
2022-09-11T03:09:25.555Z,28.94
2022-09-11T03:11:58.272Z,28.68
2022-09-11T03:14:24.786Z,27.96
2022-09-11T03:16:51.402Z,28.33
2022-09-11T03:19:19.551Z,28.62
2022-09-11T03:21:46.067Z,28.66
2022-09-11T03:24:14.429Z,28.59
2022-09-11T03:26:41.461Z,28.70
2022-09-11T03:29:08.903Z,28.61
2022-09-11T03:31:39.080Z,28.56
2022-09-11T03:34:06.544Z,28.97
2022-09-11T03:36:36.979Z,28.52
2022-09-11T03:39:04.970Z,28.39
2022-09-11T03:41:32.463Z,28.57
2022-09-11T03:43:59.753Z,28.44
2022-09-11T03:46:26.306Z,28.89
2022-09-11T03:48:53.244Z,28.98
2022-09-11T03:51:21.176Z,28.74
2022-09-11T03:53:48.575Z,28.72
2022-09-11T03:56:16.019Z,28.31
2022-09-11T03:58:47.578Z,28.25
2022-09-11T04:01:19.369Z,28.57
2022-09-11T04:03:46.459Z,28.43
2022-09-11T04:06:21.651Z,28.47
2022-09-11T04:08:49.770Z,27.86
2022-09-11T04:11:17.005Z,27.99
2022-09-11T04:13:44.424Z,28.19
2022-09-11T04:16:16.771Z,27.45
2022-09-11T04:18:46.625Z,27.71
2022-09-11T04:21:17.276Z,27.43
2022-09-11T04:23:50.392Z,27.72
2022-09-11T04:26:19.687Z,27.43
2022-09-11T04:28:51.271Z,27.89
2022-09-11T04:31:20.099Z,27.45
2022-09-11T04:33:47.938Z,27.97
2022-09-11T04:36:18.001Z,27.95
2022-09-11T04:38:45.880Z,28.16
2022-09-11T04:41:15.026Z,28.20
2022-09-11T04:43:42.360Z,28.30
2022-09-11T04:46:17.292Z,28.59
2022-09-11T04:48:45.703Z,28.54
2022-09-11T04:51:32.094Z,28.52
2022-09-11T04:54:00.450Z,28.60
2022-09-11T04:56:34.841Z,28.62
2022-09-11T04:59:06.545Z,28.63
2022-09-11T05:01:35.706Z,28.50
2022-09-11T05:04:03.122Z,28.53
2022-09-11T05:06:30.675Z,28.48
2022-09-11T05:09:05.243Z,28.57
2022-09-11T05:11:34.655Z,28.56
2022-09-11T05:14:01.669Z,28.68
2022-09-11T05:16:31.218Z,28.72
2022-09-11T05:18:59.019Z,28.93
2022-09-11T05:21:27.329Z,28.96
2022-09-11T05:23:55.935Z,29.12
2022-09-11T05:26:26.603Z,29.00
2022-09-11T05:28:55.895Z,29.14
2022-09-11T05:31:25.432Z,29.01
2022-09-11T05:33:55.850Z,28.81
2022-09-11T05:36:23.634Z,28.89
2022-09-11T05:38:50.249Z,28.86
2022-09-11T05:41:17.382Z,28.96
2022-09-11T05:43:44.315Z,29.06
2022-09-11T05:46:17.278Z,29.10
2022-09-11T05:48:46.212Z,29.16
2022-09-11T05:51:15.847Z,29.00
2022-09-11T05:53:42.891Z,29.14
2022-09-11T05:56:17.658Z,29.18
2022-09-11T05:58:46.592Z,29.22
2022-09-11T06:01:17.185Z,29.44
2022-09-11T06:03:48.438Z,29.73
2022-09-11T06:06:18.036Z,29.64
2022-09-11T06:08:45.658Z,29.74
2022-09-11T06:11:14.214Z,29.72
2022-09-11T06:13:43.211Z,29.85
2022-09-11T06:16:18.417Z,30.05
2022-09-11T06:18:50.443Z,31.05
2022-09-11T06:21:21.940Z,31.95
2022-09-11T06:23:57.774Z,32.24
2022-09-11T06:26:26.091Z,32.39
2022-09-11T06:28:54.523Z,32.20
2022-09-11T06:31:25.972Z,32.42
2022-09-11T06:33:54.335Z,32.34
2022-09-11T06:36:24.185Z,31.67
2022-09-11T06:38:55.854Z,31.61
2022-09-11T06:41:25.546Z,31.24
2022-09-11T06:43:56.462Z,30.91
2022-09-11T06:46:25.268Z,30.86
2022-09-11T06:48:55.709Z,30.08
2022-09-11T06:51:25.638Z,29.73
2022-09-11T06:53:56.121Z,30.17
2022-09-11T06:56:22.733Z,30.58
2022-09-11T06:58:51.083Z,29.91
2022-09-11T07:01:20.382Z,30.04
2022-09-11T07:03:54.520Z,30.02
2022-09-11T07:06:27.186Z,29.86
2022-09-11T07:09:00.807Z,29.81
2022-09-11T07:11:35.107Z,30.05
2022-09-11T07:14:05.762Z,30.24
2022-09-11T07:16:36.527Z,30.45
2022-09-11T07:19:09.184Z,30.35
2022-09-11T07:21:37.152Z,29.61
2022-09-11T07:24:05.065Z,29.65
2022-09-11T07:26:38.788Z,30.03
2022-09-11T07:29:12.850Z,30.57
2022-09-11T07:31:39.474Z,29.99
2022-09-11T07:34:06.749Z,29.72
2022-09-11T07:36:35.078Z,29.87
2022-09-11T07:39:06.142Z,30.07
2022-09-11T07:41:41.428Z,30.04
2022-09-11T07:44:15.229Z,30.56
2022-09-11T07:46:41.826Z,30.71
2022-09-11T07:49:11.241Z,30.91
2022-09-11T07:51:40.710Z,31.07
2022-09-11T07:54:09.757Z,30.49
2022-09-11T07:56:38.081Z,30.78
2022-09-11T07:59:08.582Z,30.80
2022-09-11T08:01:37.785Z,30.51
2022-09-11T08:04:08.017Z,30.20
2022-09-11T08:06:37.450Z,29.98
2022-09-11T08:09:12.325Z,29.72
2022-09-11T08:11:45.791Z,30.06
2022-09-11T08:14:13.723Z,30.09
2022-09-11T08:16:41.842Z,29.96
2022-09-11T08:19:16.550Z,30.46
2022-09-11T08:21:43.578Z,30.78
2022-09-11T08:24:15.090Z,30.37
2022-09-11T08:26:48.137Z,30.16
2022-09-11T08:29:18.171Z,29.98
2022-09-11T08:31:45.884Z,29.79
2022-09-11T08:34:14.118Z,29.87
2022-09-11T08:36:41.487Z,29.93
2022-09-11T08:39:09.710Z,30.19
2022-09-11T08:41:53.661Z,30.28
2022-09-11T08:44:27.450Z,30.36
2022-09-11T08:47:07.622Z,30.92
2022-09-11T08:49:39.741Z,31.07
2022-09-11T08:52:08.691Z,30.59
2022-09-11T08:54:38.128Z,31.07
2022-09-11T08:57:29.477Z,30.99
2022-09-11T09:00:18.687Z,31.57
2022-09-11T09:03:12.431Z,31.27
2022-09-11T09:05:53.521Z,30.96
2022-09-11T09:08:51.023Z,30.81
2022-09-11T09:11:30.361Z,31.22
2022-09-11T09:14:38.038Z,31.26
2022-09-11T09:17:28.836Z,31.34
2022-09-11T09:20:11.066Z,31.32
2022-09-11T09:22:55.013Z,31.24
2022-09-11T09:25:23.861Z,31.04
2022-09-11T09:28:14.684Z,31.29
2022-09-11T09:31:07.316Z,31.78
2022-09-11T09:33:42.137Z,31.50
2022-09-11T09:36:27.055Z,31.75
2022-09-11T09:38:54.603Z,31.95
2022-09-11T09:41:56.781Z,31.59
2022-09-11T09:44:54.949Z,31.19
2022-09-11T09:47:22.325Z,31.37
2022-09-11T09:49:51.543Z,31.24
2022-09-11T09:52:25.399Z,31.11
2022-09-11T09:54:56.760Z,30.83
2022-09-11T09:57:27.187Z,30.82
2022-09-11T10:00:08.774Z,31.07
2022-09-11T10:02:43.189Z,31.22
2022-09-11T10:05:13.437Z,31.11
2022-09-11T10:07:47.389Z,31.17
2022-09-11T10:10:29.889Z,31.94
2022-09-11T10:13:17.994Z,32.07
2022-09-11T10:15:49.449Z,32.16
2022-09-11T10:18:40.170Z,32.07
2022-09-11T10:21:12.345Z,32.49
2022-09-11T10:23:50.468Z,32.88
2022-09-11T10:26:23.406Z,32.92
2022-09-11T10:28:50.625Z,32.92
2022-09-11T10:31:18.582Z,33.22
2022-09-11T10:33:56.420Z,33.11
2022-09-11T10:36:27.104Z,33.24
2022-09-11T10:38:55.268Z,33.36
2022-09-11T10:41:26.043Z,33.50
2022-09-11T10:44:11.316Z,34.12
2022-09-11T10:46:42.358Z,34.56
2022-09-11T10:49:11.746Z,34.89
2022-09-11T10:51:44.330Z,35.24
2022-09-11T10:54:20.118Z,35.33
2022-09-11T10:57:00.206Z,35.66
2022-09-11T10:59:36.491Z,35.27
2022-09-11T11:02:03.920Z,35.43
2022-09-11T11:04:32.232Z,35.63
2022-09-11T11:07:13.384Z,35.75
2022-09-11T11:09:50.721Z,35.84
2022-09-11T11:12:31.882Z,35.80
2022-09-11T11:15:20.060Z,36.72
2022-09-11T11:18:15.982Z,37.19
2022-09-11T11:21:07.567Z,37.25
2022-09-11T11:23:49.554Z,36.65
2022-09-11T11:26:36.684Z,37.41
2022-09-11T11:29:35.492Z,35.80
2022-09-11T11:32:30.274Z,36.56
2022-09-11T11:35:23.666Z,36.24
2022-09-11T11:37:55.821Z,36.55
2022-09-11T11:40:36.866Z,36.38
2022-09-11T11:43:05.349Z,35.96
2022-09-11T11:46:02.344Z,35.47
2022-09-11T11:48:58.713Z,35.25
2022-09-11T11:51:36.095Z,35.23
2022-09-11T11:54:27.561Z,34.73
2022-09-11T11:56:59.879Z,35.42
2022-09-11T11:59:48.812Z,35.64
2022-09-11T12:02:24.428Z,35.27
2022-09-11T12:05:17.074Z,36.25
2022-09-11T12:07:47.278Z,36.88
2022-09-11T12:10:30.030Z,37.18
2022-09-11T12:13:01.375Z,36.75
2022-09-11T12:15:32.259Z,37.32
2022-09-11T12:18:12.079Z,36.97
2022-09-11T12:20:39.090Z,36.82
2022-09-11T12:23:07.672Z,35.70
2022-09-11T12:25:35.431Z,36.19
2022-09-11T12:28:25.571Z,36.11
2022-09-11T12:31:05.119Z,35.97
2022-09-11T12:33:41.050Z,36.80
2022-09-11T12:36:17.448Z,36.59
2022-09-11T12:38:50.102Z,37.27
2022-09-11T12:41:25.458Z,36.85
2022-09-11T12:43:54.960Z,36.55
2022-09-11T12:46:21.848Z,36.29
2022-09-11T12:49:17.837Z,36.25
2022-09-11T12:51:43.487Z,35.69
2022-09-11T12:54:18.928Z,36.06
2022-09-11T12:57:05.537Z,35.70
2022-09-11T12:59:38.490Z,35.54
2022-09-11T13:02:38.805Z,35.98
2022-09-11T13:05:24.766Z,35.60
2022-09-11T13:07:56.637Z,35.17
2022-09-11T13:10:36.407Z,35.58
2022-09-11T13:13:36.932Z,35.53
2022-09-11T13:16:30.989Z,35.44
2022-09-11T13:19:13.354Z,35.23
2022-09-11T13:21:49.320Z,35.86
2022-09-11T13:24:32.108Z,35.58
2022-09-11T13:27:18.830Z,35.79
2022-09-11T13:29:48.454Z,35.71
2022-09-11T13:32:18.037Z,35.87
2022-09-11T13:34:48.928Z,35.84
2022-09-11T13:37:43.278Z,35.54
2022-09-11T13:40:20.741Z,35.25
2022-09-11T13:42:48.847Z,35.96
2022-09-11T13:45:18.936Z,35.54
2022-09-11T13:47:46.134Z,36.06
2022-09-11T13:50:15.798Z,36.50
2022-09-11T13:52:44.575Z,36.65
2022-09-11T13:55:19.031Z,37.07
2022-09-11T13:57:55.165Z,37.80
2022-09-11T14:00:44.766Z,37.66
2022-09-11T14:03:24.386Z,37.92
2022-09-11T14:05:54.261Z,37.42
2022-09-11T14:08:27.289Z,37.39
2022-09-11T14:10:57.834Z,37.58
2022-09-11T14:13:36.156Z,36.76
2022-09-11T14:16:05.917Z,37.08
2022-09-11T14:18:40.995Z,37.19
2022-09-11T14:21:17.855Z,37.88
2022-09-11T14:23:49.733Z,37.52
2022-09-11T14:26:19.419Z,37.25
2022-09-11T14:28:55.775Z,37.54
2022-09-11T14:31:41.478Z,37.78
2022-09-11T14:34:42.005Z,37.78
2022-09-11T14:37:14.503Z,37.91
2022-09-11T14:39:47.772Z,38.19
2022-09-11T14:42:17.580Z,38.67
2022-09-11T14:44:44.432Z,38.80
2022-09-11T14:47:17.466Z,38.67
2022-09-11T14:49:48.043Z,38.96
2022-09-11T14:52:20.495Z,38.11
2022-09-11T14:54:47.852Z,38.42
2022-09-11T14:57:20.630Z,38.42
2022-09-11T14:59:47.781Z,38.03
2022-09-11T15:02:17.689Z,38.10
2022-09-11T15:04:46.146Z,37.33
2022-09-11T15:07:15.135Z,36.74
2022-09-11T15:09:42.597Z,37.46
2022-09-11T15:12:11.201Z,37.31
2022-09-11T15:14:55.862Z,37.81
2022-09-11T15:17:25.130Z,38.29
2022-09-11T15:19:52.907Z,38.28
2022-09-11T15:22:19.578Z,37.64
2022-09-11T15:24:46.988Z,37.27
2022-09-11T15:27:13.803Z,37.53
2022-09-11T15:29:42.702Z,37.07
2022-09-11T15:32:10.294Z,37.33
2022-09-11T15:34:38.529Z,37.09
2022-09-11T15:37:05.406Z,36.99
2022-09-11T15:39:31.993Z,36.66
2022-09-11T15:41:59.134Z,36.77
2022-09-11T15:44:28.549Z,36.37
2022-09-11T15:46:57.536Z,36.46
2022-09-11T15:49:28.669Z,37.01
2022-09-11T15:51:55.739Z,37.26
2022-09-11T15:54:25.107Z,36.51
2022-09-11T15:56:53.375Z,36.78
2022-09-11T15:59:20.101Z,36.72
2022-09-11T16:01:46.668Z,36.71
2022-09-11T16:04:20.101Z,36.66
2022-09-11T16:06:48.350Z,36.78
2022-09-11T16:09:18.455Z,36.16
2022-09-11T16:11:47.717Z,36.38
2022-09-11T16:14:17.708Z,36.21
2022-09-11T16:16:47.049Z,35.39
2022-09-11T16:19:15.258Z,35.52
2022-09-11T16:21:41.938Z,35.32
2022-09-11T16:24:09.879Z,35.55
2022-09-11T16:26:38.178Z,35.32
2022-09-11T16:29:08.800Z,35.53
2022-09-11T16:31:35.541Z,35.67
2022-09-11T16:34:04.136Z,35.44
2022-09-11T16:36:38.181Z,35.48
2022-09-11T16:39:11.754Z,35.64
2022-09-11T16:41:38.602Z,35.71
2022-09-11T16:44:07.224Z,35.78
2022-09-11T16:46:33.826Z,35.56
2022-09-11T16:49:02.171Z,35.50
2022-09-11T16:51:29.654Z,35.37
2022-09-11T16:53:56.872Z,35.33
2022-09-11T16:56:25.719Z,35.28
2022-09-11T16:58:52.537Z,35.16
2022-09-11T17:01:23.350Z,35.02
2022-09-11T17:03:51.716Z,34.80
2022-09-11T17:06:20.685Z,34.71
2022-09-11T17:08:50.615Z,34.58
2022-09-11T17:11:19.058Z,34.60
2022-09-11T17:13:46.556Z,34.48
2022-09-11T17:16:18.862Z,34.58
2022-09-11T17:18:50.432Z,34.54
2022-09-11T17:21:17.313Z,34.38
2022-09-11T17:23:44.138Z,34.34
2022-09-11T17:26:13.027Z,34.42
2022-09-11T17:28:40.991Z,34.19
2022-09-11T17:31:10.773Z,34.02
2022-09-11T17:33:40.114Z,34.05
2022-09-11T17:36:08.419Z,33.80
2022-09-11T17:38:35.374Z,33.73
2022-09-11T17:41:04.798Z,33.75
2022-09-11T17:43:33.188Z,33.65
2022-09-11T17:46:01.299Z,33.53
2022-09-11T17:48:28.005Z,33.45
2022-09-11T17:51:06.095Z,33.54
2022-09-11T17:53:38.485Z,33.52
2022-09-11T17:56:09.637Z,33.29
2022-09-11T17:58:37.528Z,33.26
2022-09-11T18:01:06.060Z,33.22
2022-09-11T18:03:34.260Z,33.06
2022-09-11T18:06:02.788Z,33.05
2022-09-11T18:08:31.162Z,32.97
2022-09-11T18:11:00.585Z,32.82
2022-09-11T18:13:28.946Z,32.79
2022-09-11T18:15:56.204Z,32.79
2022-09-11T18:18:23.681Z,32.42
2022-09-11T18:20:53.913Z,32.32
2022-09-11T18:23:23.174Z,32.18
2022-09-11T18:25:51.403Z,32.18
2022-09-11T18:28:20.047Z,32.00
2022-09-11T18:30:47.349Z,31.84
2022-09-11T18:33:16.636Z,31.78
2022-09-11T18:35:44.136Z,31.67
2022-09-11T18:38:10.995Z,31.44
2022-09-11T18:40:37.612Z,31.24
2022-09-11T18:43:06.209Z,31.16
2022-09-11T18:45:35.463Z,31.00
2022-09-11T18:48:03.854Z,30.82
2022-09-11T18:50:30.442Z,30.96
2022-09-11T18:52:57.035Z,30.94
2022-09-11T18:55:23.653Z,30.70
2022-09-11T18:57:50.822Z,30.67
2022-09-11T19:00:18.113Z,30.64
2022-09-11T19:02:46.682Z,30.60
2022-09-11T19:05:15.499Z,30.38
2022-09-11T19:07:43.807Z,30.32
2022-09-11T19:10:11.597Z,30.43
2022-09-11T19:12:39.389Z,30.38
2022-09-11T19:15:07.608Z,30.32
2022-09-11T19:17:35.906Z,30.25
2022-09-11T19:20:09.598Z,30.10
2022-09-11T19:22:36.224Z,30.11
2022-09-11T19:25:03.463Z,29.73
2022-09-11T19:27:31.649Z,29.88
2022-09-11T19:30:00.254Z,29.97
2022-09-11T19:32:28.061Z,29.74
2022-09-11T19:34:55.061Z,29.58
2022-09-11T19:37:21.566Z,29.35
2022-09-11T19:39:50.717Z,29.39
2022-09-11T19:42:17.806Z,29.33
2022-09-11T19:44:44.357Z,29.17
2022-09-11T19:47:11.313Z,29.26
2022-09-11T19:49:37.805Z,29.37
2022-09-11T19:52:04.371Z,29.27
2022-09-11T19:54:30.910Z,29.15
2022-09-11T19:56:57.632Z,29.31
2022-09-11T19:59:24.201Z,29.18
2022-09-11T20:01:50.774Z,29.20
2022-09-11T20:04:19.052Z,29.00
2022-09-11T20:09:30.579Z,29.26
2022-09-11T20:11:58.012Z,29.23
2022-09-11T20:14:24.509Z,28.99
2022-09-11T20:16:51.277Z,29.08
2022-09-11T20:19:17.856Z,29.15
2022-09-11T20:21:44.389Z,29.12
2022-09-11T20:24:10.880Z,29.02
2022-09-11T20:26:37.526Z,29.03
2022-09-11T20:29:07.176Z,28.81
2022-09-11T20:31:40.640Z,28.78
2022-09-11T20:34:12.920Z,28.79
2022-09-11T20:36:39.434Z,28.75
2022-09-11T20:39:06.079Z,28.75
2022-09-11T20:41:33.360Z,28.72
2022-09-11T20:44:03.532Z,28.73
2022-09-11T20:46:30.100Z,28.58
2022-09-11T20:48:56.709Z,28.37
2022-09-11T20:51:23.704Z,28.24
2022-09-11T20:53:50.559Z,28.27
2022-09-11T20:56:20.633Z,28.10
2022-09-11T20:58:47.426Z,28.07
2022-09-11T21:01:16.921Z,27.87
2022-09-11T21:03:45.885Z,27.87
2022-09-11T21:06:12.511Z,27.86
2022-09-11T21:08:40.265Z,27.66
2022-09-11T21:11:07.427Z,27.60
2022-09-11T21:13:38.357Z,27.87
2022-09-11T21:16:13.198Z,27.81
2022-09-11T21:18:44.138Z,27.75
2022-09-11T21:21:10.657Z,27.68
2022-09-11T21:23:37.211Z,27.68
2022-09-11T21:26:07.621Z,27.79
2022-09-11T21:28:34.566Z,27.62
2022-09-11T21:31:01.130Z,27.48
2022-09-11T21:33:27.978Z,27.29
2022-09-11T21:35:55.287Z,27.49
2022-09-11T21:38:30.225Z,27.49
2022-09-11T21:40:58.673Z,27.58
2022-09-11T21:43:26.108Z,27.67
2022-09-11T21:45:52.914Z,27.35
2022-09-11T21:48:19.842Z,27.39
2022-09-11T21:50:46.580Z,27.30
2022-09-11T21:53:13.196Z,27.27
2022-09-11T21:55:41.258Z,27.41
2022-09-11T21:58:08.987Z,27.24
2022-09-11T22:00:42.071Z,27.24
2022-09-11T22:03:11.175Z,27.15
2022-09-11T22:05:45.002Z,27.17
2022-09-11T22:08:13.371Z,27.09
2022-09-11T22:10:47.450Z,26.95
2022-09-11T22:13:14.938Z,27.00
2022-09-11T22:15:42.589Z,27.22
2022-09-11T22:18:09.532Z,27.23
2022-09-11T22:20:37.101Z,27.11
2022-09-11T22:23:03.809Z,26.79
2022-09-11T22:25:30.364Z,26.72
2022-09-11T22:27:57.486Z,26.91
2022-09-11T22:30:24.005Z,27.01
2022-09-11T22:32:50.750Z,26.96
2022-09-11T22:35:17.756Z,27.01
2022-09-11T22:37:44.250Z,27.06
2022-09-11T22:40:11.367Z,27.02
2022-09-11T22:42:38.694Z,27.01
2022-09-11T22:45:08.947Z,26.93
2022-09-11T22:47:35.605Z,26.82
2022-09-11T22:50:02.098Z,26.69
2022-09-11T22:52:29.131Z,26.76
2022-09-11T22:54:55.822Z,26.82
2022-09-11T22:57:22.700Z,26.69
2022-09-11T22:59:49.214Z,26.71
2022-09-11T23:02:15.909Z,26.69
2022-09-11T23:05:02.444Z,26.69
2022-09-11T23:07:29.166Z,26.58
2022-09-11T23:09:55.816Z,26.15
2022-09-11T23:12:22.562Z,26.38
2022-09-11T23:14:49.353Z,26.30
2022-09-11T23:17:16.338Z,26.30
2022-09-11T23:19:43.273Z,26.46
2022-09-11T23:22:09.782Z,26.32
2022-09-11T23:24:36.279Z,26.12
2022-09-11T23:27:02.795Z,26.25
2022-09-11T23:29:29.405Z,26.25
2022-09-11T23:31:56.568Z,26.26
2022-09-11T23:34:23.102Z,26.32
2022-09-11T23:36:49.632Z,26.36
2022-09-11T23:39:16.534Z,26.42
2022-09-11T23:41:43.058Z,26.15
2022-09-11T23:44:10.477Z,26.20
2022-09-11T23:46:38.036Z,26.17
2022-09-11T23:49:06.219Z,26.26
2022-09-11T23:51:32.782Z,25.87
2022-09-11T23:53:59.291Z,26.13
2022-09-11T23:56:25.798Z,26.21
2022-09-11T23:58:52.276Z,26.22
